Wingham, Canada
Current Conditions -  °F | °C
As of 11:26 PM on Wednesday 26 Nov 2014 (Local Time) from CYKF Reporting Station
Light Snow Light Snow  
Wind Chill: 30°   Ceiling: 3300
Heat Index: 30°   Visibility: 9mi
Dew Point: 27°   Wind: 0mph
Humidity: 86%   Direction: NA
Pressure: 30.04"   Gusts: NA
Location:  43.88°N, 81.3°W
Report Text: CYKF 270426Z AUTO 00000KT 9SM -SN OVC033 M01/M03 A3004 RMK SLP186
Loading
Personal Weather Stations






























Interactive Weather Map New forecast layout! Learn more

10-Day Weather Forecast

Advertisements
Track Severe Weather on mobile